createdAt,value
2022-12-31T00:00:22.075Z,1.52
2022-12-31T00:02:49.212Z,1.48
2022-12-31T00:05:16.328Z,1.90
2022-12-31T00:10:09.675Z,1.63
2022-12-31T00:12:36.689Z,2.37
2022-12-31T00:15:03.901Z,1.45
2022-12-31T00:17:30.922Z,1.55
2022-12-31T00:19:57.932Z,2.05
2022-12-31T00:22:25.042Z,1.08
2022-12-31T00:24:52.004Z,1.13
2022-12-31T00:27:19.129Z,1.30
2022-12-31T00:29:46.104Z,1.00
2022-12-31T00:32:13.317Z,0.82
2022-12-31T00:34:40.287Z,0.80
2022-12-31T00:37:07.266Z,1.17
2022-12-31T00:39:34.269Z,1.65
2022-12-31T00:42:01.437Z,1.10
2022-12-31T00:44:28.568Z,1.15
2022-12-31T00:46:55.497Z,0.77
2022-12-31T00:49:22.516Z,1.80
2022-12-31T00:51:49.600Z,2.00
2022-12-31T00:54:16.698Z,0.95
2022-12-31T00:56:43.758Z,0.80
2022-12-31T00:59:10.787Z,0.98
2022-12-31T01:01:40.585Z,1.25
2022-12-31T01:04:18.134Z,1.23
2022-12-31T01:06:46.263Z,0.98
2022-12-31T01:09:16.289Z,0.88
2022-12-31T01:11:43.605Z,1.10
2022-12-31T01:14:20.942Z,0.82
2022-12-31T01:16:53.237Z,1.05
2022-12-31T01:19:27.007Z,0.43
2022-12-31T01:21:55.732Z,1.02
2022-12-31T01:24:23.343Z,0.68
2022-12-31T01:26:51.379Z,1.00
2022-12-31T01:29:18.706Z,1.13
2022-12-31T01:31:45.719Z,0.57
2022-12-31T01:34:12.922Z,0.80
2022-12-31T01:36:40.126Z,1.35
2022-12-31T01:39:09.038Z,0.63
2022-12-31T01:41:44.295Z,0.77
2022-12-31T01:44:14.074Z,1.30
2022-12-31T01:46:47.283Z,0.77
2022-12-31T01:49:40.750Z,0.73
2022-12-31T01:52:14.260Z,0.75
2022-12-31T01:54:48.529Z,0.43
2022-12-31T01:57:16.885Z,1.23
2022-12-31T01:59:45.340Z,0.45
2022-12-31T02:02:15.135Z,0.85
2022-12-31T02:04:42.419Z,1.23
2022-12-31T02:07:11.370Z,0.50
2022-12-31T02:09:42.093Z,0.77
2022-12-31T02:12:10.075Z,0.80
2022-12-31T02:14:48.303Z,0.80
2022-12-31T02:18:01.641Z,0.53
2022-12-31T02:20:54.082Z,0.65
2022-12-31T02:23:54.782Z,1.38
2022-12-31T02:27:21.248Z,1.90
2022-12-31T02:30:14.291Z,1.63
2022-12-31T02:33:14.852Z,2.03
2022-12-31T02:35:49.411Z,1.23
2022-12-31T02:38:24.630Z,1.45
2022-12-31T02:40:56.638Z,1.70
2022-12-31T02:43:25.104Z,1.40
2022-12-31T02:46:38.280Z,1.25
2022-12-31T02:49:30.968Z,1.63
2022-12-31T02:52:21.327Z,1.27
2022-12-31T02:55:07.030Z,1.60
2022-12-31T02:58:00.312Z,1.70
2022-12-31T03:00:49.340Z,3.42
2022-12-31T03:03:17.695Z,1.45
2022-12-31T03:05:46.811Z,2.55
2022-12-31T03:08:25.921Z,1.48
2022-12-31T03:10:53.219Z,2.50
2022-12-31T03:13:20.219Z,1.45
2022-12-31T03:15:47.192Z,1.60
2022-12-31T03:18:39.505Z,1.88
2022-12-31T03:21:32.078Z,1.63
2022-12-31T03:24:17.857Z,2.08
2022-12-31T03:26:44.918Z,2.60
2022-12-31T03:29:11.923Z,2.35
2022-12-31T03:31:38.911Z,2.30
2022-12-31T03:34:06.066Z,2.38
2022-12-31T03:36:33.015Z,2.40
2022-12-31T03:38:59.952Z,3.78
2022-12-31T03:41:26.952Z,2.10
2022-12-31T03:43:53.931Z,3.95
2022-12-31T03:46:21.088Z,1.92
2022-12-31T03:48:48.087Z,3.53
2022-12-31T03:51:15.616Z,3.10
2022-12-31T03:53:42.600Z,2.85
2022-12-31T03:56:09.578Z,2.90
2022-12-31T03:58:36.525Z,2.97
2022-12-31T04:01:03.633Z,2.67
2022-12-31T04:03:30.704Z,3.53
2022-12-31T04:05:57.674Z,3.42
2022-12-31T04:08:25.215Z,3.97
2022-12-31T04:10:52.232Z,2.88
2022-12-31T04:13:19.257Z,3.20
2022-12-31T04:15:49.082Z,3.93
2022-12-31T04:18:16.222Z,3.95
2022-12-31T04:20:43.202Z,4.23
2022-12-31T04:23:10.331Z,3.13
2022-12-31T04:25:37.278Z,5.00
2022-12-31T04:28:04.472Z,3.67
2022-12-31T04:30:31.499Z,3.30
2022-12-31T04:32:58.475Z,3.20
2022-12-31T04:35:25.421Z,2.92
2022-12-31T04:37:52.466Z,3.80
2022-12-31T04:40:19.802Z,3.90
2022-12-31T04:42:46.820Z,3.25
2022-12-31T04:45:13.884Z,2.40
2022-12-31T04:47:40.884Z,2.63
2022-12-31T04:50:08.241Z,2.63
2022-12-31T04:52:42.160Z,2.07
2022-12-31T04:55:41.033Z,2.78
2022-12-31T04:58:08.065Z,2.53
2022-12-31T05:00:35.129Z,1.92
2022-12-31T05:03:02.181Z,2.67
2022-12-31T05:05:30.032Z,2.63
2022-12-31T05:07:57.009Z,2.60
2022-12-31T05:10:24.272Z,3.20
2022-12-31T05:12:51.301Z,1.50
2022-12-31T05:15:18.289Z,1.92
2022-12-31T05:17:45.261Z,1.40
2022-12-31T05:20:12.223Z,1.35
2022-12-31T05:22:39.281Z,1.88
2022-12-31T05:25:06.907Z,0.90
2022-12-31T05:27:34.237Z,0.88
2022-12-31T05:30:01.276Z,0.43
2022-12-31T05:32:28.352Z,0.98
2022-12-31T05:34:55.442Z,1.73
2022-12-31T05:37:22.483Z,1.30
2022-12-31T05:39:49.634Z,0.82
2022-12-31T05:42:16.709Z,1.67
2022-12-31T05:44:43.783Z,0.32
2022-12-31T05:47:11.021Z,0.80
2022-12-31T05:49:38.089Z,1.35
2022-12-31T05:52:05.331Z,0.60
2022-12-31T05:54:32.649Z,0.85
2022-12-31T05:56:59.796Z,0.50
2022-12-31T05:59:26.970Z,2.97
2022-12-31T06:01:54.013Z,0.80
2022-12-31T06:04:21.050Z,0.25
2022-12-31T06:06:48.075Z,0.53
2022-12-31T06:09:17.326Z,1.10
2022-12-31T06:11:45.270Z,2.35
2022-12-31T06:14:12.945Z,1.25
2022-12-31T06:16:40.516Z,1.17
2022-12-31T06:19:07.728Z,1.20
2022-12-31T06:21:35.060Z,1.00
2022-12-31T06:24:02.168Z,2.72
2022-12-31T06:26:29.149Z,1.00
2022-12-31T06:28:56.132Z,1.65
2022-12-31T06:31:23.106Z,0.60
2022-12-31T06:33:50.137Z,2.05
2022-12-31T06:36:17.473Z,1.08
2022-12-31T06:38:44.777Z,1.90
2022-12-31T06:41:15.107Z,1.97
2022-12-31T06:43:42.926Z,1.50
2022-12-31T06:46:13.610Z,0.70
2022-12-31T06:48:42.927Z,0.43
2022-12-31T06:51:18.085Z,1.40
2022-12-31T06:53:50.822Z,2.20
2022-12-31T06:56:31.334Z,1.30
2022-12-31T06:59:00.806Z,0.98
2022-12-31T07:01:36.566Z,0.50
2022-12-31T07:04:41.966Z,0.70
2022-12-31T07:07:35.028Z,0.55
2022-12-31T07:10:11.950Z,1.08
2022-12-31T07:13:28.014Z,0.80
2022-12-31T07:16:06.911Z,0.43
2022-12-31T07:19:05.118Z,2.97
2022-12-31T07:21:41.673Z,2.22
2022-12-31T07:24:11.755Z,2.10
2022-12-31T07:26:57.116Z,2.58
2022-12-31T07:29:54.255Z,2.20
2022-12-31T07:32:51.682Z,2.03
2022-12-31T07:35:48.633Z,0.82
2022-12-31T07:38:21.237Z,1.60
2022-12-31T07:41:28.258Z,0.75
2022-12-31T07:44:11.031Z,4.93
2022-12-31T07:46:55.708Z,1.40
2022-12-31T07:49:24.858Z,3.80
2022-12-31T07:51:53.000Z,1.00
2022-12-31T07:54:20.651Z,0.95
2022-12-31T07:56:50.458Z,2.60
2022-12-31T07:59:47.773Z,1.25
2022-12-31T08:02:20.780Z,2.70
2022-12-31T08:05:20.428Z,1.20
2022-12-31T08:08:16.970Z,0.80
2022-12-31T08:11:10.360Z,1.40
2022-12-31T08:13:39.108Z,2.00
2022-12-31T08:16:12.369Z,1.35
2022-12-31T08:18:39.953Z,2.30
2022-12-31T08:21:38.652Z,1.87
2022-12-31T08:24:54.502Z,0.70
2022-12-31T08:28:07.700Z,2.53
2022-12-31T08:30:55.509Z,1.00
2022-12-31T08:33:43.189Z,1.93
2022-12-31T08:36:53.536Z,1.77
2022-12-31T08:39:32.576Z,2.58
2022-12-31T08:42:03.415Z,1.13
2022-12-31T08:45:05.671Z,1.02
2022-12-31T08:47:41.295Z,1.53
2022-12-31T08:50:16.605Z,2.88
2022-12-31T08:52:44.372Z,3.07
2022-12-31T08:55:18.937Z,2.40
2022-12-31T08:58:19.058Z,1.20
2022-12-31T09:00:49.358Z,2.00
2022-12-31T09:03:24.091Z,1.87
2022-12-31T09:06:26.471Z,1.38
2022-12-31T09:09:50.364Z,3.15
2022-12-31T09:12:46.651Z,2.03
2022-12-31T09:15:25.113Z,1.20
2022-12-31T09:17:52.492Z,1.90
2022-12-31T09:20:43.763Z,1.30
2022-12-31T09:23:13.250Z,2.47
2022-12-31T09:26:07.712Z,1.58
2022-12-31T09:29:10.471Z,2.70
2022-12-31T09:31:54.128Z,1.35
2022-12-31T09:34:35.802Z,2.97
2022-12-31T09:37:24.846Z,1.90
2022-12-31T09:39:53.325Z,5.60
2022-12-31T09:42:50.677Z,6.63
2022-12-31T09:45:42.619Z,5.10
2022-12-31T09:48:49.282Z,2.35
2022-12-31T09:52:09.595Z,2.80
2022-12-31T09:55:20.968Z,2.67
2022-12-31T09:58:18.374Z,4.00
2022-12-31T10:01:02.227Z,1.88
2022-12-31T10:03:46.694Z,2.47
2022-12-31T10:06:53.512Z,5.10
2022-12-31T10:09:43.865Z,3.53
2022-12-31T10:12:22.956Z,2.45
2022-12-31T10:15:44.302Z,3.42
2022-12-31T10:18:58.598Z,1.67
2022-12-31T10:21:36.629Z,1.50
2022-12-31T10:24:45.939Z,3.63
2022-12-31T10:27:42.178Z,1.13
2022-12-31T10:30:13.540Z,3.53
2022-12-31T10:32:58.877Z,1.63
2022-12-31T10:35:48.998Z,2.60
2022-12-31T10:38:35.939Z,3.80
2022-12-31T10:41:49.670Z,1.38
2022-12-31T10:45:12.111Z,2.15
2022-12-31T10:48:12.253Z,2.53
2022-12-31T10:50:57.239Z,1.70
2022-12-31T10:54:25.634Z,0.70
2022-12-31T10:58:00.277Z,1.70
2022-12-31T11:00:46.059Z,2.53
2022-12-31T11:03:37.087Z,4.95
2022-12-31T11:06:49.718Z,2.60
2022-12-31T11:09:45.052Z,3.35
2022-12-31T11:12:57.518Z,5.20
2022-12-31T11:15:49.951Z,2.33
2022-12-31T11:18:59.513Z,2.40
2022-12-31T11:21:58.759Z,1.55
2022-12-31T11:24:58.177Z,1.77
2022-12-31T11:28:07.760Z,3.20
2022-12-31T11:30:59.341Z,4.70
2022-12-31T11:33:43.024Z,4.15
2022-12-31T11:36:34.940Z,3.10
2022-12-31T11:39:40.073Z,3.33
2022-12-31T11:42:44.142Z,2.50
2022-12-31T11:45:27.881Z,3.08
2022-12-31T11:48:34.380Z,5.47
2022-12-31T11:51:34.587Z,6.78
2022-12-31T11:54:57.067Z,4.10
2022-12-31T11:57:35.604Z,3.13
2022-12-31T12:00:20.483Z,4.85
2022-12-31T12:02:50.420Z,3.38
2022-12-31T12:05:21.798Z,2.58
2022-12-31T12:07:50.816Z,2.72
2022-12-31T12:10:36.533Z,4.28
2022-12-31T12:13:25.262Z,4.15
2022-12-31T12:16:06.374Z,4.00
2022-12-31T12:19:04.100Z,3.72
2022-12-31T12:21:31.776Z,3.55
2022-12-31T12:24:18.061Z,4.68
2022-12-31T12:26:45.597Z,4.68
2022-12-31T12:29:19.198Z,2.80
2022-12-31T12:31:57.579Z,2.22
2022-12-31T12:34:29.629Z,4.78
2022-12-31T12:36:57.131Z,1.90
2022-12-31T12:39:31.602Z,3.88
2022-12-31T12:42:15.080Z,2.75
2022-12-31T12:44:42.794Z,3.03
2022-12-31T12:47:17.391Z,5.00
2022-12-31T12:49:54.152Z,6.05
2022-12-31T12:52:56.365Z,5.18
2022-12-31T12:55:35.285Z,3.90
2022-12-31T12:58:19.362Z,3.45
2022-12-31T13:00:56.927Z,3.63
2022-12-31T13:04:33.458Z,3.55
2022-12-31T14:01:53.431Z,5.47
2022-12-31T14:04:45.079Z,3.90
2022-12-31T14:07:34.744Z,4.93
2022-12-31T14:10:16.161Z,3.63
2022-12-31T14:13:44.196Z,6.35
2022-12-31T14:16:32.219Z,5.57
2022-12-31T14:19:34.195Z,4.40
2022-12-31T14:22:21.702Z,3.20
2022-12-31T14:24:51.187Z,4.32
2022-12-31T14:27:32.181Z,6.55
2022-12-31T14:30:15.631Z,1.95
2022-12-31T14:33:06.868Z,4.68
2022-12-31T14:35:56.688Z,4.15
2022-12-31T14:39:00.814Z,5.30
2022-12-31T14:41:56.761Z,5.43
2022-12-31T14:44:54.904Z,4.93
2022-12-31T14:47:40.982Z,6.60
2022-12-31T14:50:20.820Z,11.70
2022-12-31T14:53:17.529Z,8.32
2022-12-31T14:55:44.596Z,7.82
2022-12-31T14:58:29.729Z,9.10
2022-12-31T15:01:03.342Z,5.25
2022-12-31T15:03:45.471Z,5.32
2022-12-31T15:06:32.856Z,7.13
2022-12-31T15:09:20.996Z,6.95
2022-12-31T15:12:27.868Z,3.28
2022-12-31T15:15:42.443Z,6.45
2022-12-31T15:18:21.946Z,8.30
2022-12-31T15:20:54.891Z,6.45
2022-12-31T15:23:39.578Z,6.93
2022-12-31T15:26:08.519Z,6.03
2022-12-31T15:28:39.531Z,5.47
2022-12-31T15:31:20.694Z,4.72
2022-12-31T15:34:29.532Z,6.03
2022-12-31T15:37:01.296Z,6.77
2022-12-31T15:39:31.121Z,4.13
2022-12-31T15:44:55.377Z,4.10
2022-12-31T15:47:39.720Z,5.70
2022-12-31T15:50:20.518Z,4.53
2022-12-31T15:53:02.741Z,4.45
2022-12-31T15:55:41.697Z,4.53
2022-12-31T15:58:18.363Z,8.90
2022-12-31T16:01:10.332Z,7.07
2022-12-31T16:03:42.253Z,5.60
2022-12-31T16:06:13.952Z,3.80
2022-12-31T16:08:46.185Z,5.50
2022-12-31T16:11:13.582Z,5.82
2022-12-31T16:13:48.697Z,4.95
2022-12-31T16:16:31.631Z,6.17
2022-12-31T16:19:00.021Z,5.93
2022-12-31T16:21:36.364Z,5.43
2022-12-31T16:24:32.229Z,7.75
2022-12-31T16:27:13.809Z,4.72
2022-12-31T16:29:55.535Z,6.45
2022-12-31T16:32:23.245Z,3.60
2022-12-31T16:34:50.281Z,4.45
2022-12-31T16:37:20.886Z,3.55
2022-12-31T16:40:08.817Z,5.03
2022-12-31T16:42:44.246Z,4.70
2022-12-31T16:45:36.817Z,3.20
2022-12-31T16:48:18.631Z,7.82
2022-12-31T16:50:55.907Z,5.47
2022-12-31T16:53:27.766Z,4.22
2022-12-31T16:56:06.950Z,4.68
2022-12-31T16:58:40.082Z,4.03
2022-12-31T17:01:20.959Z,4.07
2022-12-31T17:03:55.357Z,2.70
2022-12-31T17:06:23.331Z,6.07
2022-12-31T17:08:56.280Z,3.75
2022-12-31T17:11:39.174Z,3.38
2022-12-31T17:14:06.263Z,4.57
2022-12-31T17:16:59.552Z,3.63
2022-12-31T17:19:45.900Z,6.07
2022-12-31T17:22:34.217Z,4.75
2022-12-31T17:25:27.022Z,3.80
2022-12-31T17:28:03.114Z,5.50
2022-12-31T17:30:29.990Z,4.47
2022-12-31T17:33:08.150Z,4.40
2022-12-31T17:35:42.407Z,4.07
2022-12-31T17:38:21.282Z,6.45
2022-12-31T17:40:55.713Z,5.50
2022-12-31T17:43:24.637Z,4.55
2022-12-31T17:45:54.918Z,5.35
2022-12-31T17:48:24.712Z,4.97
2022-12-31T17:50:58.333Z,4.53
2022-12-31T17:53:26.134Z,6.25
2022-12-31T17:56:00.102Z,4.82
2022-12-31T17:58:51.009Z,4.60
2022-12-31T18:01:22.370Z,6.35
2022-12-31T18:03:50.185Z,4.57
2022-12-31T18:06:19.754Z,5.38
2022-12-31T18:08:47.108Z,5.30
2022-12-31T18:11:24.637Z,4.03
2022-12-31T18:13:52.947Z,5.60
2022-12-31T18:16:19.960Z,4.78
2022-12-31T18:18:46.937Z,5.28
2022-12-31T18:21:36.751Z,5.05
2022-12-31T18:26:33.090Z,4.82
2022-12-31T18:29:10.637Z,2.70
2022-12-31T18:31:37.863Z,4.53
2022-12-31T18:34:04.938Z,6.43
2022-12-31T18:36:32.324Z,9.10
2022-12-31T18:38:59.344Z,6.60
2022-12-31T18:41:34.324Z,5.63
2022-12-31T18:44:01.450Z,4.88
2022-12-31T18:46:29.352Z,7.82
2022-12-31T18:48:56.500Z,4.85
2022-12-31T18:51:31.494Z,6.68
2022-12-31T18:54:00.755Z,5.13
2022-12-31T18:56:28.316Z,5.78
2022-12-31T18:58:55.928Z,6.30
2022-12-31T19:01:43.320Z,5.40
2022-12-31T19:04:18.712Z,5.67
2022-12-31T19:06:49.492Z,4.10
2022-12-31T19:09:43.515Z,6.50
2022-12-31T19:12:05.102Z,7.95
2022-12-31T19:14:32.155Z,6.43
2022-12-31T19:19:26.215Z,9.23
2022-12-31T19:21:53.187Z,6.47
2022-12-31T19:24:24.512Z,6.63
2022-12-31T19:26:51.494Z,7.50
2022-12-31T19:29:27.505Z,6.82
2022-12-31T19:31:55.171Z,5.28
2022-12-31T19:34:22.282Z,5.20
2022-12-31T19:36:49.602Z,3.72
2022-12-31T19:39:20.774Z,5.72
2022-12-31T19:41:53.041Z,4.87
2022-12-31T19:44:25.304Z,5.82
2022-12-31T19:46:52.368Z,8.38
2022-12-31T19:49:19.310Z,5.90
2022-12-31T19:51:46.312Z,4.20
2022-12-31T19:54:13.897Z,5.70
2022-12-31T19:56:41.483Z,4.80
2022-12-31T19:59:10.804Z,5.45
2022-12-31T20:01:38.817Z,6.90
2022-12-31T20:04:06.045Z,4.05
2022-12-31T20:06:33.132Z,6.78
2022-12-31T20:09:00.217Z,6.03
2022-12-31T20:11:27.406Z,4.82
2022-12-31T20:13:54.512Z,5.43
2022-12-31T20:16:26.718Z,5.78
2022-12-31T20:18:54.112Z,6.57
2022-12-31T20:21:27.864Z,4.35
2022-12-31T20:23:55.613Z,5.32
2022-12-31T20:26:24.658Z,6.60
2022-12-31T20:28:52.700Z,4.70
2022-12-31T20:31:24.988Z,8.17
2022-12-31T20:33:54.284Z,4.80
2022-12-31T20:36:22.501Z,5.43
2022-12-31T20:38:50.009Z,4.07
2022-12-31T20:41:21.339Z,4.43
2022-12-31T20:43:49.139Z,5.43
2022-12-31T20:46:20.273Z,4.45
2022-12-31T20:48:49.734Z,5.85
2022-12-31T20:51:21.150Z,7.50
2022-12-31T20:53:57.531Z,7.28
2022-12-31T20:56:28.331Z,6.30
2022-12-31T20:58:55.514Z,7.93
2022-12-31T21:01:23.256Z,7.83
2022-12-31T21:04:07.017Z,10.77
2022-12-31T21:06:36.160Z,5.82
2022-12-31T21:09:06.151Z,5.82
2022-12-31T21:11:52.411Z,3.47
2022-12-31T21:14:19.779Z,8.20
2022-12-31T21:16:47.288Z,5.47
2022-12-31T21:19:14.474Z,5.32
2022-12-31T21:21:41.707Z,2.83
2022-12-31T21:24:08.980Z,6.43
2022-12-31T21:26:36.015Z,4.65
2022-12-31T21:29:03.431Z,5.07
2022-12-31T21:31:30.459Z,7.00
2022-12-31T21:33:57.657Z,5.13
2022-12-31T21:36:24.638Z,4.88
2022-12-31T21:38:51.685Z,4.90
2022-12-31T21:41:37.365Z,4.85
2022-12-31T21:44:04.492Z,5.80
2022-12-31T21:46:31.524Z,6.55
2022-12-31T21:49:00.351Z,3.80
2022-12-31T21:51:28.613Z,3.17
2022-12-31T21:53:55.774Z,5.13
2022-12-31T21:56:23.039Z,5.47
2022-12-31T21:59:17.025Z,6.30
2022-12-31T22:02:02.608Z,3.67
2022-12-31T22:05:02.023Z,3.13
2022-12-31T22:07:16.775Z,5.68
2022-12-31T22:09:43.891Z,7.20
2022-12-31T22:12:10.872Z,3.47
2022-12-31T22:14:37.807Z,2.28
2022-12-31T22:17:04.917Z,4.07
2022-12-31T22:19:33.616Z,4.68
2022-12-31T22:22:06.397Z,7.40
2022-12-31T22:24:33.379Z,5.80
2022-12-31T22:27:00.500Z,4.50
2022-12-31T22:29:47.573Z,5.05
2022-12-31T22:32:14.550Z,7.20
2022-12-31T22:34:41.499Z,3.05
2022-12-31T22:37:27.478Z,7.18
2022-12-31T22:39:55.631Z,4.72
2022-12-31T22:42:22.669Z,4.07
2022-12-31T22:44:49.824Z,5.18
2022-12-31T22:47:16.849Z,6.60
2022-12-31T22:49:43.875Z,6.50
2022-12-31T22:52:10.855Z,6.40
2022-12-31T22:54:37.811Z,6.95
2022-12-31T22:57:05.008Z,21.05
2022-12-31T22:59:31.982Z,13.07
2022-12-31T23:01:58.949Z,10.88
2022-12-31T23:04:26.038Z,11.47
2022-12-31T23:06:53.108Z,9.65
2022-12-31T23:09:38.814Z,10.30
2022-12-31T23:12:08.724Z,9.52
2022-12-31T23:14:55.158Z,7.60
2022-12-31T23:17:44.813Z,8.70
2022-12-31T23:20:35.937Z,6.22
2022-12-31T23:23:09.954Z,5.97
2022-12-31T23:25:48.914Z,6.30
2022-12-31T23:28:23.626Z,9.07
2022-12-31T23:30:51.648Z,7.88
2022-12-31T23:33:25.391Z,7.63
2022-12-31T23:36:05.902Z,5.50
2022-12-31T23:38:32.886Z,6.77
2022-12-31T23:40:59.817Z,9.48
2022-12-31T23:43:27.177Z,8.52
2022-12-31T23:45:56.994Z,8.63
2022-12-31T23:48:23.985Z,6.27
2022-12-31T23:50:53.743Z,7.88
2022-12-31T23:53:23.130Z,8.43
2022-12-31T23:55:51.661Z,10.23
2022-12-31T23:58:18.655Z,7.50
